X  Fechar Metar - Info de Aeroporto     EBBR Brussels Airport
Temperatura
6°C Temperatura
1°C Ptº Orvalho
71% Humidade



Vento
4 M/S
10 MPH
16 KM/H
9 NÓS



180°
S
Condições Atuais

Limpo Limpo
Pressão 1000 (hPa) - 29.53 (inHg)
Visibilidade 6 (milha) - 9.7 (km)
Aeroporto
Código-Aeropoto EBBR

Localização: Brussels Airport
Distância: 10 (km)

Metar:
EBBR 241850Z 18009KT CAVOK 06/01 Q1000 NOSIG

Hora: 24-02-2024 19:50 CET